sensor_id;sensor_type;location;lat;lon;timestamp;P1;durP1;ratioP1;P2;durP2;ratioP2
37791;SDS011;29527;55.766;37.570;2023-04-30T00:00:04;21.38;;;9.90;;
37791;SDS011;29527;55.766;37.570;2023-04-30T00:02:32;18.35;;;9.55;;
37791;SDS011;29527;55.766;37.570;2023-04-30T00:04:58;17.10;;;9.80;;
37791;SDS011;29527;55.766;37.570;2023-04-30T00:07:23;15.70;;;10.30;;
37791;SDS011;29527;55.766;37.570;2023-04-30T00:09:49;24.05;;;10.45;;
37791;SDS011;29527;55.766;37.570;2023-04-30T00:12:15;15.75;;;9.52;;
37791;SDS011;29527;55.766;37.570;2023-04-30T00:14:41;19.27;;;9.70;;
37791;SDS011;29527;55.766;37.570;2023-04-30T00:17:06;14.95;;;10.43;;
37791;SDS011;29527;55.766;37.570;2023-04-30T00:19:32;19.35;;;9.65;;
37791;SDS011;29527;55.766;37.570;2023-04-30T00:21:57;20.35;;;9.52;;
37791;SDS011;29527;55.766;37.570;2023-04-30T00:24:25;15.07;;;9.93;;
37791;SDS011;29527;55.766;37.570;2023-04-30T00:26:51;15.15;;;9.65;;
37791;SDS011;29527;55.766;37.570;2023-04-30T00:29:17;18.83;;;10.43;;
37791;SDS011;29527;55.766;37.570;2023-04-30T00:31:42;20.25;;;10.25;;
37791;SDS011;29527;55.766;37.570;2023-04-30T00:34:08;18.48;;;10.00;;
37791;SDS011;29527;55.766;37.570;2023-04-30T00:36:34;20.17;;;10.45;;
37791;SDS011;29527;55.766;37.570;2023-04-30T00:38:59;18.13;;;10.13;;
37791;SDS011;29527;55.766;37.570;2023-04-30T00:41:25;16.83;;;10.00;;
37791;SDS011;29527;55.766;37.570;2023-04-30T00:43:52;18.70;;;10.38;;
37791;SDS011;29527;55.766;37.570;2023-04-30T00:46:17;23.92;;;11.05;;
37791;SDS011;29527;55.766;37.570;2023-04-30T00:48:43;26.40;;;10.30;;
37791;SDS011;29527;55.766;37.570;2023-04-30T00:51:08;21.33;;;10.20;;
37791;SDS011;29527;55.766;37.570;2023-04-30T00:53:34;24.70;;;11.25;;
37791;SDS011;29527;55.766;37.570;2023-04-30T00:56:01;24.38;;;10.80;;
37791;SDS011;29527;55.766;37.570;2023-04-30T00:58:27;20.35;;;10.23;;
37791;SDS011;29527;55.766;37.570;2023-04-30T01:00:52;18.88;;;9.98;;
37791;SDS011;29527;55.766;37.570;2023-04-30T01:03:18;18.75;;;9.63;;
37791;SDS011;29527;55.766;37.570;2023-04-30T01:05:44;20.42;;;9.00;;
37791;SDS011;29527;55.766;37.570;2023-04-30T01:08:09;18.00;;;10.60;;
37791;SDS011;29527;55.766;37.570;2023-04-30T01:10:51;19.95;;;9.95;;
37791;SDS011;29527;55.766;37.570;2023-04-30T01:13:34;21.20;;;10.38;;
37791;SDS011;29527;55.766;37.570;2023-04-30T01:18:58;23.35;;;10.13;;
37791;SDS011;29527;55.766;37.570;2023-04-30T01:21:29;21.60;;;10.02;;
37791;SDS011;29527;55.766;37.570;2023-04-30T01:29:29;18.98;;;9.93;;
37791;SDS011;29527;55.766;37.570;2023-04-30T01:31:56;18.85;;;10.27;;
37791;SDS011;29527;55.766;37.570;2023-04-30T01:34:22;17.52;;;10.45;;
37791;SDS011;29527;55.766;37.570;2023-04-30T01:37:10;22.73;;;10.57;;
37791;SDS011;29527;55.766;37.570;2023-04-30T01:42:44;22.60;;;11.65;;
37791;SDS011;29527;55.766;37.570;2023-04-30T01:51:23;17.50;;;10.88;;
37791;SDS011;29527;55.766;37.570;2023-04-30T01:53:54;17.13;;;10.05;;
37791;SDS011;29527;55.766;37.570;2023-04-30T01:56:32;27.92;;;10.82;;
37791;SDS011;29527;55.766;37.570;2023-04-30T01:59:04;18.92;;;10.50;;
37791;SDS011;29527;55.766;37.570;2023-04-30T02:01:31;26.38;;;10.65;;
37791;SDS011;29527;55.766;37.570;2023-04-30T02:03:57;19.80;;;10.63;;
37791;SDS011;29527;55.766;37.570;2023-04-30T02:06:24;21.33;;;10.60;;
37791;SDS011;29527;55.766;37.570;2023-04-30T02:08:54;23.20;;;11.32;;
37791;SDS011;29527;55.766;37.570;2023-04-30T02:11:23;22.25;;;11.35;;
37791;SDS011;29527;55.766;37.570;2023-04-30T02:13:49;25.30;;;11.57;;
37791;SDS011;29527;55.766;37.570;2023-04-30T02:16:15;21.63;;;11.30;;
37791;SDS011;29527;55.766;37.570;2023-04-30T02:18:41;21.17;;;11.07;;
37791;SDS011;29527;55.766;37.570;2023-04-30T02:21:07;17.20;;;10.48;;
37791;SDS011;29527;55.766;37.570;2023-04-30T02:23:32;25.58;;;11.77;;
37791;SDS011;29527;55.766;37.570;2023-04-30T02:25:57;19.00;;;10.73;;
37791;SDS011;29527;55.766;37.570;2023-04-30T02:28:23;23.15;;;11.13;;
37791;SDS011;29527;55.766;37.570;2023-04-30T02:30:49;20.15;;;10.73;;
37791;SDS011;29527;55.766;37.570;2023-04-30T02:33:14;20.45;;;10.82;;
37791;SDS011;29527;55.766;37.570;2023-04-30T02:35:40;22.25;;;10.73;;
37791;SDS011;29527;55.766;37.570;2023-04-30T02:38:06;23.73;;;11.32;;
37791;SDS011;29527;55.766;37.570;2023-04-30T02:40:32;25.27;;;11.60;;
37791;SDS011;29527;55.766;37.570;2023-04-30T02:42:58;23.55;;;11.38;;
37791;SDS011;29527;55.766;37.570;2023-04-30T02:45:25;20.17;;;12.07;;
37791;SDS011;29527;55.766;37.570;2023-04-30T02:47:51;23.30;;;12.80;;
37791;SDS011;29527;55.766;37.570;2023-04-30T02:50:16;20.85;;;12.27;;
37791;SDS011;29527;55.766;37.570;2023-04-30T02:52:43;20.33;;;12.50;;
37791;SDS011;29527;55.766;37.570;2023-04-30T02:55:10;22.98;;;11.88;;
37791;SDS011;29527;55.766;37.570;2023-04-30T02:57:35;26.95;;;12.52;;
37791;SDS011;29527;55.766;37.570;2023-04-30T03:00:01;26.83;;;13.07;;
37791;SDS011;29527;55.766;37.570;2023-04-30T03:02:30;25.60;;;12.93;;
37791;SDS011;29527;55.766;37.570;2023-04-30T03:04:56;30.35;;;15.73;;
37791;SDS011;29527;55.766;37.570;2023-04-30T03:07:21;31.30;;;13.35;;
37791;SDS011;29527;55.766;37.570;2023-04-30T03:09:47;22.75;;;13.05;;
37791;SDS011;29527;55.766;37.570;2023-04-30T03:12:12;32.58;;;14.93;;
37791;SDS011;29527;55.766;37.570;2023-04-30T03:14:39;28.55;;;14.95;;
37791;SDS011;29527;55.766;37.570;2023-04-30T03:17:05;26.45;;;14.23;;
37791;SDS011;29527;55.766;37.570;2023-04-30T03:19:31;28.75;;;14.63;;
37791;SDS011;29527;55.766;37.570;2023-04-30T03:21:57;27.58;;;15.32;;
37791;SDS011;29527;55.766;37.570;2023-04-30T03:24:22;37.33;;;15.40;;
37791;SDS011;29527;55.766;37.570;2023-04-30T03:26:49;29.80;;;16.65;;
37791;SDS011;29527;55.766;37.570;2023-04-30T03:29:15;35.33;;;16.50;;
37791;SDS011;29527;55.766;37.570;2023-04-30T03:31:40;38.47;;;17.92;;
37791;SDS011;29527;55.766;37.570;2023-04-30T03:34:06;31.13;;;16.25;;
37791;SDS011;29527;55.766;37.570;2023-04-30T03:36:32;37.25;;;18.27;;
37791;SDS011;29527;55.766;37.570;2023-04-30T03:38:59;34.15;;;18.05;;
37791;SDS011;29527;55.766;37.570;2023-04-30T03:41:25;33.53;;;18.33;;
37791;SDS011;29527;55.766;37.570;2023-04-30T03:43:50;38.20;;;17.35;;
37791;SDS011;29527;55.766;37.570;2023-04-30T03:46:16;32.85;;;17.88;;
37791;SDS011;29527;55.766;37.570;2023-04-30T03:48:42;30.77;;;15.68;;
37791;SDS011;29527;55.766;37.570;2023-04-30T03:51:08;27.83;;;15.52;;
37791;SDS011;29527;55.766;37.570;2023-04-30T03:53:33;22.77;;;14.50;;
37791;SDS011;29527;55.766;37.570;2023-04-30T03:55:59;34.83;;;14.55;;
37791;SDS011;29527;55.766;37.570;2023-04-30T03:58:25;23.65;;;14.18;;
37791;SDS011;29527;55.766;37.570;2023-04-30T04:00:50;25.80;;;13.38;;
37791;SDS011;29527;55.766;37.570;2023-04-30T04:03:16;22.00;;;13.30;;
37791;SDS011;29527;55.766;37.570;2023-04-30T04:05:42;24.17;;;13.75;;
37791;SDS011;29527;55.766;37.570;2023-04-30T04:08:08;24.85;;;14.25;;
37791;SDS011;29527;55.766;37.570;2023-04-30T04:10:34;27.98;;;13.82;;
37791;SDS011;29527;55.766;37.570;2023-04-30T04:13:00;22.50;;;13.43;;
37791;SDS011;29527;55.766;37.570;2023-04-30T04:15:25;20.67;;;12.88;;
37791;SDS011;29527;55.766;37.570;2023-04-30T04:17:51;19.42;;;13.40;;
37791;SDS011;29527;55.766;37.570;2023-04-30T04:20:16;15.02;;;11.20;;
37791;SDS011;29527;55.766;37.570;2023-04-30T04:22:42;18.83;;;11.88;;
37791;SDS011;29527;55.766;37.570;2023-04-30T04:25:08;16.30;;;11.70;;
37791;SDS011;29527;55.766;37.570;2023-04-30T04:27:34;18.10;;;11.38;;
37791;SDS011;29527;55.766;37.570;2023-04-30T04:30:01;15.75;;;9.95;;
37791;SDS011;29527;55.766;37.570;2023-04-30T04:32:30;17.70;;;9.65;;
37791;SDS011;29527;55.766;37.570;2023-04-30T04:34:56;11.38;;;9.80;;
37791;SDS011;29527;55.766;37.570;2023-04-30T04:37:22;14.73;;;11.10;;
37791;SDS011;29527;55.766;37.570;2023-04-30T04:39:48;13.13;;;10.00;;
37791;SDS011;29527;55.766;37.570;2023-04-30T04:42:15;13.88;;;9.82;;
37791;SDS011;29527;55.766;37.570;2023-04-30T04:44:41;12.48;;;9.90;;
37791;SDS011;29527;55.766;37.570;2023-04-30T04:47:07;14.65;;;11.00;;
37791;SDS011;29527;55.766;37.570;2023-04-30T04:49:34;18.88;;;10.90;;
37791;SDS011;29527;55.766;37.570;2023-04-30T04:52:00;16.45;;;11.68;;
37791;SDS011;29527;55.766;37.570;2023-04-30T04:54:26;15.38;;;11.48;;
37791;SDS011;29527;55.766;37.570;2023-04-30T04:56:52;17.15;;;11.45;;
37791;SDS011;29527;55.766;37.570;2023-04-30T04:59:17;19.15;;;12.15;;
37791;SDS011;29527;55.766;37.570;2023-04-30T05:01:43;14.80;;;10.35;;
37791;SDS011;29527;55.766;37.570;2023-04-30T05:04:08;15.20;;;9.55;;
37791;SDS011;29527;55.766;37.570;2023-04-30T05:06:34;16.27;;;10.18;;
37791;SDS011;29527;55.766;37.570;2023-04-30T05:09:00;13.98;;;9.82;;
37791;SDS011;29527;55.766;37.570;2023-04-30T05:11:25;13.63;;;8.65;;
37791;SDS011;29527;55.766;37.570;2023-04-30T05:13:51;15.25;;;9.10;;
37791;SDS011;29527;55.766;37.570;2023-04-30T05:16:16;10.10;;;6.75;;
37791;SDS011;29527;55.766;37.570;2023-04-30T05:18:42;9.95;;;8.60;;
37791;SDS011;29527;55.766;37.570;2023-04-30T05:21:08;12.88;;;8.30;;
37791;SDS011;29527;55.766;37.570;2023-04-30T05:23:33;14.90;;;10.52;;
37791;SDS011;29527;55.766;37.570;2023-04-30T05:25:59;16.05;;;11.75;;
37791;SDS011;29527;55.766;37.570;2023-04-30T05:28:24;17.13;;;10.27;;
37791;SDS011;29527;55.766;37.570;2023-04-30T05:30:50;15.95;;;10.68;;
37791;SDS011;29527;55.766;37.570;2023-04-30T05:33:16;14.13;;;11.40;;
37791;SDS011;29527;55.766;37.570;2023-04-30T05:35:41;16.75;;;11.68;;
37791;SDS011;29527;55.766;37.570;2023-04-30T05:38:07;14.65;;;11.55;;
37791;SDS011;29527;55.766;37.570;2023-04-30T05:40:32;12.55;;;11.13;;
37791;SDS011;29527;55.766;37.570;2023-04-30T05:42:58;14.73;;;10.13;;
37791;SDS011;29527;55.766;37.570;2023-04-30T05:45:23;12.98;;;9.57;;
37791;SDS011;29527;55.766;37.570;2023-04-30T05:47:49;11.55;;;10.45;;
37791;SDS011;29527;55.766;37.570;2023-04-30T05:50:14;12.07;;;10.55;;
37791;SDS011;29527;55.766;37.570;2023-04-30T05:52:40;13.80;;;10.32;;
37791;SDS011;29527;55.766;37.570;2023-04-30T05:55:06;17.98;;;12.05;;
37791;SDS011;29527;55.766;37.570;2023-04-30T05:57:32;14.43;;;11.23;;
37791;SDS011;29527;55.766;37.570;2023-04-30T05:59:59;14.65;;;10.30;;
37791;SDS011;29527;55.766;37.570;2023-04-30T06:02:25;13.65;;;9.70;;
37791;SDS011;29527;55.766;37.570;2023-04-30T06:04:50;13.88;;;10.50;;
37791;SDS011;29527;55.766;37.570;2023-04-30T06:07:16;15.88;;;9.80;;
37791;SDS011;29527;55.766;37.570;2023-04-30T06:09:41;14.60;;;9.68;;
37791;SDS011;29527;55.766;37.570;2023-04-30T06:12:07;13.90;;;10.07;;
37791;SDS011;29527;55.766;37.570;2023-04-30T06:14:33;14.25;;;9.85;;
37791;SDS011;29527;55.766;37.570;2023-04-30T06:16:59;12.82;;;9.60;;
37791;SDS011;29527;55.766;37.570;2023-04-30T06:19:26;10.68;;;7.88;;
37791;SDS011;29527;55.766;37.570;2023-04-30T06:21:51;11.63;;;7.28;;
37791;SDS011;29527;55.766;37.570;2023-04-30T06:24:17;9.68;;;7.03;;
37791;SDS011;29527;55.766;37.570;2023-04-30T06:26:42;10.32;;;6.50;;
37791;SDS011;29527;55.766;37.570;2023-04-30T06:29:08;7.45;;;6.47;;
37791;SDS011;29527;55.766;37.570;2023-04-30T06:31:33;8.57;;;4.90;;
37791;SDS011;29527;55.766;37.570;2023-04-30T06:33:59;9.90;;;5.40;;
37791;SDS011;29527;55.766;37.570;2023-04-30T06:36:24;9.80;;;4.72;;
37791;SDS011;29527;55.766;37.570;2023-04-30T06:38:50;7.60;;;5.80;;
37791;SDS011;29527;55.766;37.570;2023-04-30T06:41:15;6.88;;;4.80;;
37791;SDS011;29527;55.766;37.570;2023-04-30T06:43:42;8.43;;;4.65;;
37791;SDS011;29527;55.766;37.570;2023-04-30T06:46:08;7.53;;;4.57;;
37791;SDS011;29527;55.766;37.570;2023-04-30T06:48:33;6.93;;;4.60;;
37791;SDS011;29527;55.766;37.570;2023-04-30T06:50:59;5.85;;;4.80;;
37791;SDS011;29527;55.766;37.570;2023-04-30T06:53:24;5.88;;;4.50;;
37791;SDS011;29527;55.766;37.570;2023-04-30T06:55:50;4.22;;;3.75;;
37791;SDS011;29527;55.766;37.570;2023-04-30T06:58:16;5.75;;;3.80;;
37791;SDS011;29527;55.766;37.570;2023-04-30T07:00:45;3.38;;;2.90;;
37791;SDS011;29527;55.766;37.570;2023-04-30T07:03:11;4.45;;;2.90;;
37791;SDS011;29527;55.766;37.570;2023-04-30T07:05:36;4.35;;;3.30;;
37791;SDS011;29527;55.766;37.570;2023-04-30T07:08:02;5.88;;;3.35;;
37791;SDS011;29527;55.766;37.570;2023-04-30T07:10:29;5.82;;;3.80;;
37791;SDS011;29527;55.766;37.570;2023-04-30T07:12:55;9.52;;;3.80;;
37791;SDS011;29527;55.766;37.570;2023-04-30T07:15:21;5.35;;;4.07;;
37791;SDS011;29527;55.766;37.570;2023-04-30T07:17:46;3.78;;;3.40;;
37791;SDS011;29527;55.766;37.570;2023-04-30T07:20:12;5.40;;;4.20;;
37791;SDS011;29527;55.766;37.570;2023-04-30T07:22:39;4.70;;;3.75;;
37791;SDS011;29527;55.766;37.570;2023-04-30T07:25:05;4.50;;;3.85;;
37791;SDS011;29527;55.766;37.570;2023-04-30T07:27:31;5.80;;;3.47;;
37791;SDS011;29527;55.766;37.570;2023-04-30T07:29:57;6.18;;;3.47;;
37791;SDS011;29527;55.766;37.570;2023-04-30T07:32:22;6.93;;;3.35;;
37791;SDS011;29527;55.766;37.570;2023-04-30T07:34:51;5.50;;;3.10;;
37791;SDS011;29527;55.766;37.570;2023-04-30T07:37:17;6.05;;;3.25;;
37791;SDS011;29527;55.766;37.570;2023-04-30T07:39:43;5.68;;;3.55;;
37791;SDS011;29527;55.766;37.570;2023-04-30T07:42:08;4.68;;;3.00;;
37791;SDS011;29527;55.766;37.570;2023-04-30T07:44:34;3.97;;;2.67;;
37791;SDS011;29527;55.766;37.570;2023-04-30T07:46:59;5.30;;;3.28;;
37791;SDS011;29527;55.766;37.570;2023-04-30T07:49:25;4.63;;;3.00;;
37791;SDS011;29527;55.766;37.570;2023-04-30T07:51:50;3.25;;;2.35;;
37791;SDS011;29527;55.766;37.570;2023-04-30T07:54:16;5.38;;;2.55;;
37791;SDS011;29527;55.766;37.570;2023-04-30T07:56:41;3.13;;;2.30;;
37791;SDS011;29527;55.766;37.570;2023-04-30T07:59:07;2.53;;;1.92;;
37791;SDS011;29527;55.766;37.570;2023-04-30T08:01:32;3.92;;;2.03;;
37791;SDS011;29527;55.766;37.570;2023-04-30T08:03:58;4.07;;;2.15;;
37791;SDS011;29527;55.766;37.570;2023-04-30T08:06:24;6.03;;;2.13;;
37791;SDS011;29527;55.766;37.570;2023-04-30T08:08:51;5.57;;;2.13;;
37791;SDS011;29527;55.766;37.570;2023-04-30T08:11:17;2.72;;;1.95;;
37791;SDS011;29527;55.766;37.570;2023-04-30T08:13:42;2.10;;;1.80;;
37791;SDS011;29527;55.766;37.570;2023-04-30T08:16:08;3.13;;;2.03;;
37791;SDS011;29527;55.766;37.570;2023-04-30T08:18:33;2.35;;;1.80;;
37791;SDS011;29527;55.766;37.570;2023-04-30T08:20:59;3.42;;;2.00;;
37791;SDS011;29527;55.766;37.570;2023-04-30T08:23:25;3.78;;;1.83;;
37791;SDS011;29527;55.766;37.570;2023-04-30T08:25:51;6.18;;;1.67;;
37791;SDS011;29527;55.766;37.570;2023-04-30T08:28:17;3.83;;;1.83;;
37791;SDS011;29527;55.766;37.570;2023-04-30T08:30:43;3.45;;;2.05;;
37791;SDS011;29527;55.766;37.570;2023-04-30T08:33:09;4.70;;;1.80;;
37791;SDS011;29527;55.766;37.570;2023-04-30T08:35:35;5.47;;;2.22;;
37791;SDS011;29527;55.766;37.570;2023-04-30T08:38:00;5.07;;;2.22;;
37791;SDS011;29527;55.766;37.570;2023-04-30T08:40:26;5.47;;;2.00;;
37791;SDS011;29527;55.766;37.570;2023-04-30T08:42:59;3.90;;;2.10;;
37791;SDS011;29527;55.766;37.570;2023-04-30T08:45:33;5.15;;;1.77;;
37791;SDS011;29527;55.766;37.570;2023-04-30T08:48:03;2.53;;;1.80;;
37791;SDS011;29527;55.766;37.570;2023-04-30T08:50:29;2.60;;;1.85;;
37791;SDS011;29527;55.766;37.570;2023-04-30T08:52:58;2.92;;;2.13;;
37791;SDS011;29527;55.766;37.570;2023-04-30T08:55:26;5.22;;;2.35;;
37791;SDS011;29527;55.766;37.570;2023-04-30T08:57:52;4.88;;;2.25;;
37791;SDS011;29527;55.766;37.570;2023-04-30T09:00:17;6.15;;;2.15;;
37791;SDS011;29527;55.766;37.570;2023-04-30T09:02:43;3.58;;;1.95;;
37791;SDS011;29527;55.766;37.570;2023-04-30T09:05:11;2.10;;;1.58;;
37791;SDS011;29527;55.766;37.570;2023-04-30T09:07:42;4.07;;;1.85;;
37791;SDS011;29527;55.766;37.570;2023-04-30T09:10:15;4.43;;;2.17;;
37791;SDS011;29527;55.766;37.570;2023-04-30T09:12:42;3.08;;;1.90;;
37791;SDS011;29527;55.766;37.570;2023-04-30T09:15:11;6.15;;;2.47;;
37791;SDS011;29527;55.766;37.570;2023-04-30T09:17:37;3.83;;;2.00;;
37791;SDS011;29527;55.766;37.570;2023-04-30T09:20:09;4.18;;;2.40;;
37791;SDS011;29527;55.766;37.570;2023-04-30T09:22:36;4.18;;;2.08;;
37791;SDS011;29527;55.766;37.570;2023-04-30T09:25:04;2.75;;;1.90;;
37791;SDS011;29527;55.766;37.570;2023-04-30T09:27:31;2.35;;;1.90;;
37791;SDS011;29527;55.766;37.570;2023-04-30T09:29:56;5.75;;;2.85;;
37791;SDS011;29527;55.766;37.570;2023-04-30T09:32:22;2.47;;;1.83;;
37791;SDS011;29527;55.766;37.570;2023-04-30T09:34:47;2.92;;;1.60;;
37791;SDS011;29527;55.766;37.570;2023-04-30T09:37:13;4.65;;;1.83;;
37791;SDS011;29527;55.766;37.570;2023-04-30T09:39:50;6.00;;;2.00;;
37791;SDS011;29527;55.766;37.570;2023-04-30T09:42:19;4.53;;;2.03;;
37791;SDS011;29527;55.766;37.570;2023-04-30T09:44:45;5.45;;;2.10;;
37791;SDS011;29527;55.766;37.570;2023-04-30T09:47:15;6.05;;;2.00;;
37791;SDS011;29527;55.766;37.570;2023-04-30T09:49:42;5.22;;;1.90;;
37791;SDS011;29527;55.766;37.570;2023-04-30T09:52:09;7.05;;;2.03;;
37791;SDS011;29527;55.766;37.570;2023-04-30T09:54:35;7.10;;;2.00;;
37791;SDS011;29527;55.766;37.570;2023-04-30T09:57:01;5.10;;;1.95;;
37791;SDS011;29527;55.766;37.570;2023-04-30T09:59:28;2.05;;;1.45;;
37791;SDS011;29527;55.766;37.570;2023-04-30T10:02:00;5.07;;;1.50;;
37791;SDS011;29527;55.766;37.570;2023-04-30T10:04:38;1.50;;;1.40;;
37791;SDS011;29527;55.766;37.570;2023-04-30T10:07:08;2.58;;;1.38;;
37791;SDS011;29527;55.766;37.570;2023-04-30T10:09:43;2.97;;;1.70;;
37791;SDS011;29527;55.766;37.570;2023-04-30T10:12:13;4.28;;;1.75;;
37791;SDS011;29527;55.766;37.570;2023-04-30T10:15:04;4.53;;;1.85;;
37791;SDS011;29527;55.766;37.570;2023-04-30T10:17:30;3.55;;;1.90;;
37791;SDS011;29527;55.766;37.570;2023-04-30T10:20:00;2.28;;;1.77;;
37791;SDS011;29527;55.766;37.570;2023-04-30T10:22:30;3.42;;;1.85;;
37791;SDS011;29527;55.766;37.570;2023-04-30T10:24:58;4.03;;;1.77;;
37791;SDS011;29527;55.766;37.570;2023-04-30T10:27:27;1.77;;;1.50;;
37791;SDS011;29527;55.766;37.570;2023-04-30T10:29:53;3.60;;;1.52;;
37791;SDS011;29527;55.766;37.570;2023-04-30T10:32:19;3.95;;;1.50;;
37791;SDS011;29527;55.766;37.570;2023-04-30T10:37:59;2.65;;;1.70;;
37791;SDS011;29527;55.766;37.570;2023-04-30T10:40:34;2.47;;;1.33;;
37791;SDS011;29527;55.766;37.570;2023-04-30T10:43:01;3.17;;;1.63;;
37791;SDS011;29527;55.766;37.570;2023-04-30T10:45:36;2.42;;;1.48;;
37791;SDS011;29527;55.766;37.570;2023-04-30T10:48:03;2.38;;;1.50;;
37791;SDS011;29527;55.766;37.570;2023-04-30T10:50:29;2.45;;;1.40;;
37791;SDS011;29527;55.766;37.570;2023-04-30T10:53:01;2.85;;;1.50;;
37791;SDS011;29527;55.766;37.570;2023-04-30T10:55:28;1.50;;;1.30;;
37791;SDS011;29527;55.766;37.570;2023-04-30T10:57:54;4.90;;;1.48;;
37791;SDS011;29527;55.766;37.570;2023-04-30T11:00:25;3.78;;;1.60;;
37791;SDS011;29527;55.766;37.570;2023-04-30T11:02:56;4.95;;;1.70;;
37791;SDS011;29527;55.766;37.570;2023-04-30T11:05:45;4.20;;;1.92;;
37791;SDS011;29527;55.766;37.570;2023-04-30T11:08:10;1.77;;;1.40;;
37791;SDS011;29527;55.766;37.570;2023-04-30T11:10:36;2.92;;;1.58;;
37791;SDS011;29527;55.766;37.570;2023-04-30T11:13:02;6.40;;;2.00;;
37791;SDS011;29527;55.766;37.570;2023-04-30T11:15:40;2.55;;;1.70;;
37791;SDS011;29527;55.766;37.570;2023-04-30T11:18:06;1.80;;;1.50;;
37791;SDS011;29527;55.766;37.570;2023-04-30T11:20:32;2.30;;;1.60;;
37791;SDS011;29527;55.766;37.570;2023-04-30T11:23:11;2.55;;;1.70;;
37791;SDS011;29527;55.766;37.570;2023-04-30T11:28:17;4.55;;;1.70;;
37791;SDS011;29527;55.766;37.570;2023-04-30T11:30:57;5.72;;;1.70;;
37791;SDS011;29527;55.766;37.570;2023-04-30T11:33:24;2.95;;;1.60;;
37791;SDS011;29527;55.766;37.570;2023-04-30T11:35:51;3.55;;;1.77;;
37791;SDS011;29527;55.766;37.570;2023-04-30T11:38:30;2.90;;;1.70;;
37791;SDS011;29527;55.766;37.570;2023-04-30T11:40:59;3.42;;;1.95;;
37791;SDS011;29527;55.766;37.570;2023-04-30T11:45:59;3.28;;;1.70;;
37791;SDS011;29527;55.766;37.570;2023-04-30T11:48:32;2.90;;;1.90;;
37791;SDS011;29527;55.766;37.570;2023-04-30T11:51:02;4.70;;;2.10;;
37791;SDS011;29527;55.766;37.570;2023-04-30T11:53:46;3.60;;;2.00;;
37791;SDS011;29527;55.766;37.570;2023-04-30T11:56:14;4.30;;;1.80;;
37791;SDS011;29527;55.766;37.570;2023-04-30T11:58:46;5.15;;;1.90;;
37791;SDS011;29527;55.766;37.570;2023-04-30T12:01:12;2.47;;;1.45;;
37791;SDS011;29527;55.766;37.570;2023-04-30T12:03:46;4.85;;;1.65;;
37791;SDS011;29527;55.766;37.570;2023-04-30T12:06:22;3.40;;;1.77;;
37791;SDS011;29527;55.766;37.570;2023-04-30T12:08:52;4.68;;;1.60;;
37791;SDS011;29527;55.766;37.570;2023-04-30T12:11:25;2.50;;;1.45;;
37791;SDS011;29527;55.766;37.570;2023-04-30T12:13:53;5.65;;;1.85;;
37791;SDS011;29527;55.766;37.570;2023-04-30T12:16:24;4.88;;;3.35;;
37791;SDS011;29527;55.766;37.570;2023-04-30T12:18:50;8.10;;;2.42;;
37791;SDS011;29527;55.766;37.570;2023-04-30T12:21:15;4.93;;;2.03;;
37791;SDS011;29527;55.766;37.570;2023-04-30T12:23:42;3.75;;;1.88;;
37791;SDS011;29527;55.766;37.570;2023-04-30T12:26:09;3.38;;;1.70;;
37791;SDS011;29527;55.766;37.570;2023-04-30T12:28:35;4.40;;;2.17;;
37791;SDS011;29527;55.766;37.570;2023-04-30T12:31:00;4.63;;;2.08;;
37791;SDS011;29527;55.766;37.570;2023-04-30T12:33:30;6.53;;;2.03;;
37791;SDS011;29527;55.766;37.570;2023-04-30T12:35:56;4.00;;;1.95;;
37791;SDS011;29527;55.766;37.570;2023-04-30T12:38:23;4.65;;;1.92;;
37791;SDS011;29527;55.766;37.570;2023-04-30T12:40:48;6.57;;;1.88;;
37791;SDS011;29527;55.766;37.570;2023-04-30T12:43:15;3.55;;;2.03;;
37791;SDS011;29527;55.766;37.570;2023-04-30T12:45:51;4.80;;;2.20;;
37791;SDS011;29527;55.766;37.570;2023-04-30T12:48:19;11.90;;;2.78;;
37791;SDS011;29527;55.766;37.570;2023-04-30T12:50:59;5.22;;;2.42;;
37791;SDS011;29527;55.766;37.570;2023-04-30T12:53:27;5.68;;;2.53;;
37791;SDS011;29527;55.766;37.570;2023-04-30T12:56:05;6.68;;;2.63;;
37791;SDS011;29527;55.766;37.570;2023-04-30T12:58:39;2.38;;;1.38;;
37791;SDS011;29527;55.766;37.570;2023-04-30T13:01:09;6.80;;;2.10;;
37791;SDS011;29527;55.766;37.570;2023-04-30T13:03:37;10.30;;;2.53;;
37791;SDS011;29527;55.766;37.570;2023-04-30T13:06:03;6.82;;;2.53;;
37791;SDS011;29527;55.766;37.570;2023-04-30T13:08:30;8.45;;;3.00;;
37791;SDS011;29527;55.766;37.570;2023-04-30T13:10:56;10.50;;;2.60;;
37791;SDS011;29527;55.766;37.570;2023-04-30T13:13:21;5.93;;;2.20;;
37791;SDS011;29527;55.766;37.570;2023-04-30T13:15:47;6.45;;;2.40;;
37791;SDS011;29527;55.766;37.570;2023-04-30T13:18:12;4.32;;;2.33;;
37791;SDS011;29527;55.766;37.570;2023-04-30T13:20:40;4.13;;;2.33;;
37791;SDS011;29527;55.766;37.570;2023-04-30T13:23:05;7.30;;;2.70;;
37791;SDS011;29527;55.766;37.570;2023-04-30T13:25:31;6.53;;;2.30;;
37791;SDS011;29527;55.766;37.570;2023-04-30T13:27:58;3.90;;;2.00;;
37791;SDS011;29527;55.766;37.570;2023-04-30T13:30:23;8.75;;;2.22;;
37791;SDS011;29527;55.766;37.570;2023-04-30T13:32:49;6.07;;;2.15;;
37791;SDS011;29527;55.766;37.570;2023-04-30T13:35:16;3.55;;;2.10;;
37791;SDS011;29527;55.766;37.570;2023-04-30T13:37:42;6.57;;;2.20;;
37791;SDS011;29527;55.766;37.570;2023-04-30T13:40:09;6.28;;;2.13;;
37791;SDS011;29527;55.766;37.570;2023-04-30T13:42:35;9.88;;;2.90;;
37791;SDS011;29527;55.766;37.570;2023-04-30T13:45:05;8.52;;;2.45;;
37791;SDS011;29527;55.766;37.570;2023-04-30T13:47:31;3.15;;;2.15;;
37791;SDS011;29527;55.766;37.570;2023-04-30T13:49:57;6.22;;;2.92;;
37791;SDS011;29527;55.766;37.570;2023-04-30T13:52:22;3.47;;;2.65;;
37791;SDS011;29527;55.766;37.570;2023-04-30T13:54:48;6.60;;;2.60;;
37791;SDS011;29527;55.766;37.570;2023-04-30T13:57:14;9.05;;;3.00;;
37791;SDS011;29527;55.766;37.570;2023-04-30T13:59:39;7.78;;;2.75;;
37791;SDS011;29527;55.766;37.570;2023-04-30T14:02:05;8.52;;;3.15;;
37791;SDS011;29527;55.766;37.570;2023-04-30T14:04:31;2.30;;;1.65;;
37791;SDS011;29527;55.766;37.570;2023-04-30T14:06:56;5.88;;;3.10;;
37791;SDS011;29527;55.766;37.570;2023-04-30T14:09:22;6.50;;;2.85;;
37791;SDS011;29527;55.766;37.570;2023-04-30T14:11:48;4.45;;;2.65;;
37791;SDS011;29527;55.766;37.570;2023-04-30T14:14:13;5.38;;;2.28;;
37791;SDS011;29527;55.766;37.570;2023-04-30T14:16:39;4.18;;;2.65;;
37791;SDS011;29527;55.766;37.570;2023-04-30T14:19:06;6.30;;;2.50;;
37791;SDS011;29527;55.766;37.570;2023-04-30T14:21:31;3.45;;;2.33;;
37791;SDS011;29527;55.766;37.570;2023-04-30T14:23:57;6.45;;;2.47;;
37791;SDS011;29527;55.766;37.570;2023-04-30T14:26:22;7.13;;;2.92;;
37791;SDS011;29527;55.766;37.570;2023-04-30T14:28:48;4.63;;;2.58;;
37791;SDS011;29527;55.766;37.570;2023-04-30T14:31:14;9.18;;;2.85;;
37791;SDS011;29527;55.766;37.570;2023-04-30T14:33:39;3.13;;;2.60;;
37791;SDS011;29527;55.766;37.570;2023-04-30T14:36:06;6.75;;;2.72;;
37791;SDS011;29527;55.766;37.570;2023-04-30T14:38:32;7.03;;;2.65;;
37791;SDS011;29527;55.766;37.570;2023-04-30T14:40:57;3.47;;;1.95;;
37791;SDS011;29527;55.766;37.570;2023-04-30T14:43:23;5.00;;;2.75;;
37791;SDS011;29527;55.766;37.570;2023-04-30T14:45:49;4.63;;;2.60;;
37791;SDS011;29527;55.766;37.570;2023-04-30T14:48:15;9.30;;;3.13;;